createdAt,value
2019-03-26T00:02:22.794Z,94021.61
2019-03-26T00:04:53.742Z,94033.09
2019-03-26T00:07:24.837Z,94032.13
2019-03-26T00:09:55.958Z,94040.82
2019-03-26T00:12:27.563Z,94044.25
2019-03-26T00:14:58.715Z,94051.75
2019-03-26T00:17:29.866Z,94059.05
2019-03-26T00:20:01.074Z,94063.50
2019-03-26T00:22:32.205Z,94061.34
2019-03-26T00:25:03.079Z,94059.49
2019-03-26T00:27:34.078Z,94064.64
2019-03-26T00:30:05.481Z,94064.30
2019-03-26T00:32:36.591Z,94062.70
2019-03-26T00:35:07.655Z,94072.89
2019-03-26T00:37:38.946Z,94078.33
2019-03-26T00:40:10.489Z,94075.36
2019-03-26T00:42:42.667Z,94083.14
2019-03-26T00:45:13.590Z,94085.61
2019-03-26T00:47:44.667Z,94085.95
2019-03-26T00:50:16.090Z,94088.16
2019-03-26T00:52:46.999Z,94091.83
2019-03-26T00:55:22.971Z,93811.09
2019-03-26T00:57:51.127Z,94101.41
2019-03-26T01:00:39.785Z,94099.27
2019-03-26T01:03:10.715Z,94106.02
2019-03-26T01:05:42.037Z,94104.61
2019-03-26T01:08:13.076Z,94107.73
2019-03-26T01:10:44.004Z,94110.61
2019-03-26T01:13:15.251Z,94114.38
2019-03-26T01:15:46.342Z,94116.75
2019-03-26T01:18:17.384Z,94122.14
2019-03-26T01:20:48.549Z,94124.23
2019-03-26T01:23:19.745Z,94125.53
2019-03-26T01:25:50.670Z,94125.30
2019-03-26T01:28:21.646Z,94128.30
2019-03-26T01:30:52.782Z,94124.20
2019-03-26T01:33:23.635Z,94119.63
2019-03-26T01:35:54.494Z,94123.36
2019-03-26T01:38:25.695Z,94127.68
2019-03-26T01:40:56.547Z,94123.09
2019-03-26T01:43:27.725Z,94130.57
2019-03-26T01:45:58.897Z,94124.14
2019-03-26T01:48:29.863Z,94136.80
2019-03-26T01:51:01.067Z,94136.75
2019-03-26T01:53:32.002Z,94150.42
2019-03-26T01:56:03.177Z,94149.58
2019-03-26T01:58:34.384Z,94152.98
2019-03-26T02:01:05.350Z,94149.83
2019-03-26T02:03:36.198Z,94157.59
2019-03-26T02:06:07.161Z,94160.43
2019-03-26T02:08:38.439Z,94160.05
2019-03-26T02:11:09.546Z,94161.68
2019-03-26T02:13:40.831Z,94168.52
2019-03-26T02:16:12.022Z,94174.70
2019-03-26T02:18:43.074Z,94169.30
2019-03-26T02:21:15.213Z,94175.17
2019-03-26T02:23:46.056Z,94180.56
2019-03-26T02:26:17.319Z,94187.91
2019-03-26T02:28:48.462Z,94186.08
2019-03-26T02:31:19.285Z,94190.95
2019-03-26T02:33:50.206Z,94192.94
2019-03-26T02:36:21.159Z,94198.65
2019-03-26T02:38:52.000Z,94204.99
2019-03-26T02:41:23.271Z,94208.29
2019-03-26T02:43:54.517Z,94210.27
2019-03-26T02:46:25.672Z,94230.45
2019-03-26T02:48:56.803Z,94212.94
2019-03-26T02:51:27.988Z,94223.29
2019-03-26T02:53:59.206Z,94223.56
2019-03-26T02:56:30.458Z,94226.61
2019-03-26T02:59:01.407Z,94246.31
2019-03-26T03:01:32.921Z,94239.63
2019-03-26T03:04:03.921Z,94251.12
2019-03-26T03:06:35.053Z,94255.66
2019-03-26T03:09:07.700Z,94266.14
2019-03-26T03:11:38.848Z,94273.84
2019-03-26T03:14:09.784Z,94267.73
2019-03-26T03:16:40.877Z,94283.91
2019-03-26T03:19:15.647Z,94283.55
2019-03-26T03:21:44.812Z,94286.90
2019-03-26T03:24:15.967Z,94294.23
2019-03-26T03:26:46.847Z,94309.38
2019-03-26T03:29:17.737Z,94301.33
2019-03-26T03:31:49.758Z,94311.11
2019-03-26T03:34:20.628Z,94317.27
2019-03-26T03:36:51.755Z,94319.29
2019-03-26T03:39:22.958Z,94327.83
2019-03-26T03:41:53.910Z,94338.75
2019-03-26T03:44:24.954Z,94344.52
2019-03-26T03:46:56.858Z,94340.33
2019-03-26T03:49:30.633Z,94344.84
2019-03-26T03:52:03.745Z,94359.79
2019-03-26T03:54:37.580Z,94352.30
2019-03-26T03:57:10.154Z,94358.43
2019-03-26T03:59:43.633Z,94366.74
2019-03-26T04:02:14.505Z,94362.80
2019-03-26T04:04:45.606Z,94374.75
2019-03-26T04:07:16.899Z,94373.98
2019-03-26T04:09:48.131Z,94387.52
2019-03-26T04:12:18.987Z,94387.66
2019-03-26T04:14:50.448Z,94389.70
2019-03-26T04:17:21.534Z,94393.34
2019-03-26T04:19:52.416Z,94396.83
2019-03-26T04:22:23.572Z,94412.05
2019-03-26T04:24:54.684Z,94406.06
2019-03-26T04:27:26.593Z,94408.99
2019-03-26T04:29:57.643Z,94410.78
2019-03-26T04:32:28.485Z,94420.31
2019-03-26T04:34:59.596Z,94422.62
2019-03-26T04:37:31.926Z,94425.84
2019-03-26T04:40:02.894Z,94430.02
2019-03-26T04:42:34.171Z,94434.41
2019-03-26T04:45:05.536Z,94443.03
2019-03-26T04:47:36.569Z,94438.45
2019-03-26T04:50:07.911Z,94449.67
2019-03-26T04:52:39.120Z,94463.08
2019-03-26T04:55:11.447Z,94452.77
2019-03-26T04:57:42.368Z,94449.98
2019-03-26T05:00:13.821Z,94455.83
2019-03-26T05:02:44.785Z,94449.80
2019-03-26T05:05:16.839Z,94462.17
2019-03-26T05:07:48.076Z,94460.91
2019-03-26T05:10:19.266Z,94466.68
2019-03-26T05:12:50.536Z,94471.92
2019-03-26T05:15:21.649Z,94474.32
2019-03-26T05:17:52.769Z,94478.84
2019-03-26T05:20:23.960Z,94477.64
2019-03-26T05:22:54.801Z,94478.28
2019-03-26T05:25:25.996Z,94196.20
2019-03-26T05:27:57.227Z,94484.41
2019-03-26T05:30:28.315Z,94487.57
2019-03-26T05:32:59.125Z,94492.95
2019-03-26T05:35:30.257Z,94488.87
2019-03-26T05:38:01.254Z,94491.65
2019-03-26T05:40:32.284Z,94495.41
2019-03-26T05:43:03.482Z,94490.77
2019-03-26T05:45:34.710Z,94497.28
2019-03-26T05:48:05.668Z,94487.87
2019-03-26T05:50:36.819Z,94490.20
2019-03-26T05:53:07.890Z,94491.52
2019-03-26T05:55:38.868Z,94497.45
2019-03-26T05:58:09.930Z,94486.23
2019-03-26T06:00:41.124Z,94485.60
2019-03-26T06:03:11.959Z,94492.91
2019-03-26T06:05:42.959Z,94489.75
2019-03-26T06:08:13.954Z,94492.48
2019-03-26T06:10:45.194Z,94491.09
2019-03-26T06:13:17.304Z,94499.52
2019-03-26T06:15:48.251Z,94498.22
2019-03-26T06:18:19.334Z,94503.91
2019-03-26T06:20:50.585Z,94504.70
2019-03-26T06:23:21.482Z,94502.44
2019-03-26T06:25:52.454Z,94506.23
2019-03-26T06:28:24.727Z,94498.83
2019-03-26T06:30:56.647Z,94502.68
2019-03-26T06:33:27.625Z,94524.39
2019-03-26T06:35:58.576Z,94509.17
2019-03-26T06:38:29.856Z,94506.95
2019-03-26T06:41:02.014Z,94518.30
2019-03-26T06:43:32.838Z,94524.95
2019-03-26T06:46:03.782Z,94515.08
2019-03-26T06:48:34.965Z,94515.39
2019-03-26T06:51:05.950Z,94501.29
2019-03-26T06:53:36.834Z,94521.20
2019-03-26T06:56:07.956Z,94516.00
2019-03-26T06:58:39.075Z,94517.58
2019-03-26T07:01:09.951Z,94519.34
2019-03-26T07:03:41.172Z,94521.97
2019-03-26T07:06:12.127Z,94520.37
2019-03-26T07:08:43.026Z,94513.28
2019-03-26T07:11:13.902Z,94525.33
2019-03-26T07:13:44.780Z,94519.84
2019-03-26T07:16:15.895Z,94529.33
2019-03-26T07:18:46.962Z,94516.25
2019-03-26T07:21:17.937Z,94523.80
2019-03-26T07:23:49.294Z,94512.78
2019-03-26T07:26:20.751Z,94537.47
2019-03-26T07:28:51.786Z,94520.76
2019-03-26T07:31:22.977Z,94520.80
2019-03-26T07:33:53.988Z,94520.69
2019-03-26T07:36:24.910Z,94525.98
2019-03-26T07:38:56.038Z,94515.50
2019-03-26T07:41:26.889Z,94532.09
2019-03-26T07:43:57.860Z,94540.00
2019-03-26T07:46:29.113Z,94531.72
2019-03-26T07:48:59.942Z,94536.42
2019-03-26T07:51:31.233Z,94535.89
2019-03-26T07:54:02.471Z,94538.16
2019-03-26T07:56:33.356Z,94539.31
2019-03-26T07:59:04.477Z,94544.89
2019-03-26T08:01:35.709Z,94540.17
2019-03-26T08:04:06.989Z,94539.64
2019-03-26T08:06:37.880Z,94534.91
2019-03-26T08:09:09.232Z,94534.28
2019-03-26T08:11:40.144Z,94546.92
2019-03-26T08:14:11.097Z,94536.13
2019-03-26T08:16:41.963Z,94553.02
2019-03-26T08:19:12.996Z,94542.67
2019-03-26T08:21:44.139Z,94547.17
2019-03-26T08:24:15.208Z,94537.81
2019-03-26T08:26:46.230Z,94555.40
2019-03-26T08:29:17.207Z,94557.09
2019-03-26T08:31:48.047Z,94546.13
2019-03-26T08:34:18.944Z,94553.40
2019-03-26T08:36:50.299Z,94553.81
2019-03-26T08:39:21.334Z,94568.50
2019-03-26T08:41:52.191Z,94560.48
2019-03-26T08:44:23.364Z,94578.28
2019-03-26T08:46:54.206Z,94566.25
2019-03-26T08:49:30.608Z,94562.11
2019-03-26T08:51:57.753Z,94562.25
2019-03-26T08:54:29.109Z,94566.27
2019-03-26T08:57:00.636Z,94574.22
2019-03-26T08:59:31.770Z,94569.01
2019-03-26T09:02:02.592Z,94567.93
2019-03-26T09:04:33.793Z,94564.00
2019-03-26T09:07:04.983Z,94545.77
2019-03-26T09:09:35.869Z,94563.76
2019-03-26T09:12:07.129Z,94558.53
2019-03-26T09:14:38.382Z,94562.58
2019-03-26T09:17:09.516Z,94569.48
2019-03-26T09:19:40.583Z,94558.48
2019-03-26T09:22:11.523Z,94569.23
2019-03-26T09:24:42.774Z,94556.20
2019-03-26T09:27:13.679Z,94542.47
2019-03-26T09:29:44.552Z,94559.05
2019-03-26T09:32:15.736Z,94567.13
2019-03-26T09:34:46.924Z,94567.02
2019-03-26T09:37:17.795Z,94563.28
2019-03-26T09:39:48.924Z,94569.45
2019-03-26T09:42:20.236Z,94562.03
2019-03-26T09:44:51.102Z,94573.30
2019-03-26T09:47:22.371Z,94580.63
2019-03-26T09:49:53.656Z,94559.03
2019-03-26T09:52:24.517Z,94570.76
2019-03-26T09:54:55.456Z,94574.06
2019-03-26T09:57:26.506Z,94602.02
2019-03-26T09:59:57.364Z,94589.89
2019-03-26T10:02:28.338Z,94581.97
2019-03-26T10:04:59.514Z,94572.66
2019-03-26T10:07:30.651Z,94588.52
2019-03-26T10:10:01.583Z,94593.02
2019-03-26T10:12:33.239Z,94565.59
2019-03-26T10:15:04.704Z,94592.87
2019-03-26T10:17:35.573Z,94597.88
2019-03-26T10:20:07.164Z,94591.28
2019-03-26T10:22:38.328Z,94587.27
2019-03-26T10:25:11.348Z,94590.06
2019-03-26T10:27:42.488Z,94585.52
2019-03-26T10:30:15.319Z,94593.66
2019-03-26T10:32:46.412Z,94590.67
2019-03-26T10:35:17.671Z,94590.02
2019-03-26T10:37:48.658Z,94568.44
2019-03-26T10:40:31.593Z,94589.36
2019-03-26T10:43:02.815Z,94597.17
2019-03-26T10:45:33.749Z,94600.77
2019-03-26T10:48:05.154Z,94609.80
2019-03-26T10:50:36.356Z,94606.13
2019-03-26T10:53:07.378Z,94611.34
2019-03-26T10:55:38.592Z,94605.08
2019-03-26T10:58:09.476Z,94616.80
2019-03-26T11:00:40.640Z,94604.63
2019-03-26T11:03:11.602Z,94597.17
2019-03-26T11:05:42.447Z,94591.37
2019-03-26T11:08:13.328Z,94612.66
2019-03-26T11:10:44.647Z,94606.61
2019-03-26T11:13:15.606Z,94601.34
2019-03-26T11:15:46.562Z,94592.50
2019-03-26T11:18:17.830Z,94587.52
2019-03-26T11:21:01.697Z,94582.11
2019-03-26T11:23:21.859Z,94583.34
2019-03-26T11:25:53.051Z,94586.05
2019-03-26T11:28:24.134Z,94585.11
2019-03-26T11:30:55.396Z,94591.37
2019-03-26T11:33:26.423Z,94592.30
2019-03-26T11:35:57.309Z,94591.66
2019-03-26T11:38:28.254Z,94592.78
2019-03-26T11:41:02.523Z,94604.02
2019-03-26T11:43:36.032Z,94604.37
2019-03-26T11:46:07.454Z,94592.91
2019-03-26T11:48:38.904Z,94591.63
2019-03-26T11:51:09.985Z,94585.00
2019-03-26T11:53:41.387Z,94590.84
2019-03-26T11:56:12.661Z,94598.98
2019-03-26T11:58:43.698Z,94594.86
2019-03-26T12:01:14.813Z,94590.48
2019-03-26T12:03:45.747Z,94588.91
2019-03-26T12:06:16.901Z,94588.39
2019-03-26T12:08:47.865Z,94602.78
2019-03-26T12:11:18.705Z,94588.52
2019-03-26T12:13:49.675Z,94604.82
2019-03-26T12:16:20.964Z,94598.69
2019-03-26T12:18:51.930Z,94601.28
2019-03-26T12:21:22.951Z,94604.45
2019-03-26T12:23:54.116Z,94609.55
2019-03-26T12:26:24.968Z,94599.52
2019-03-26T12:28:56.991Z,94608.00
2019-03-26T12:31:28.089Z,94599.85
2019-03-26T12:33:59.229Z,94603.54
2019-03-26T12:36:39.722Z,94608.05
2019-03-26T12:39:02.941Z,94611.50
2019-03-26T12:41:34.487Z,94612.71
2019-03-26T12:44:05.423Z,94607.95
2019-03-26T12:46:36.297Z,94616.42
2019-03-26T12:49:07.207Z,94618.47
2019-03-26T12:51:39.381Z,94613.26
2019-03-26T12:54:10.496Z,94610.61
2019-03-26T12:56:41.524Z,94615.62
2019-03-26T12:59:12.684Z,94622.02
2019-03-26T13:01:43.785Z,94612.89
2019-03-26T13:04:16.865Z,94605.71
2019-03-26T13:06:47.547Z,94608.34
2019-03-26T13:09:18.436Z,94609.64
2019-03-26T13:11:49.695Z,94609.55
2019-03-26T13:14:20.586Z,94608.53
2019-03-26T13:16:51.597Z,94607.66
2019-03-26T13:19:22.853Z,94601.91
2019-03-26T13:21:54.033Z,94603.30
2019-03-26T13:24:24.919Z,94601.42
2019-03-26T13:26:56.212Z,94604.73
2019-03-26T13:29:27.386Z,94604.66
2019-03-26T13:31:58.373Z,94606.60
2019-03-26T13:34:29.536Z,94609.95
2019-03-26T13:37:00.568Z,94608.84
2019-03-26T13:39:31.936Z,94611.02
2019-03-26T13:42:03.045Z,94606.23
2019-03-26T13:44:33.949Z,94609.52
2019-03-26T13:47:05.185Z,94611.48
2019-03-26T13:49:36.347Z,94619.41
2019-03-26T13:52:07.203Z,94616.02
2019-03-26T13:54:38.362Z,94617.56
2019-03-26T13:57:09.612Z,94615.04
2019-03-26T13:59:40.526Z,94621.51
2019-03-26T14:02:11.687Z,94613.31
2019-03-26T14:04:42.841Z,94618.55
2019-03-26T14:07:13.834Z,94624.88
2019-03-26T14:09:44.812Z,94623.56
2019-03-26T14:12:17.079Z,94624.75
2019-03-26T14:14:47.920Z,94622.13
2019-03-26T14:17:18.941Z,94623.72
2019-03-26T14:19:50.303Z,94629.41
2019-03-26T14:22:21.228Z,94623.70
2019-03-26T14:24:52.098Z,94624.02
2019-03-26T14:27:23.274Z,94625.66
2019-03-26T14:29:54.696Z,94628.22
2019-03-26T14:32:25.599Z,94628.11
2019-03-26T14:34:56.812Z,94622.67
2019-03-26T14:37:29.700Z,94619.65
2019-03-26T14:40:00.602Z,94624.50
2019-03-26T14:42:31.741Z,94620.61
2019-03-26T14:45:02.613Z,94616.09
2019-03-26T14:47:33.774Z,94616.78
2019-03-26T14:50:05.171Z,94619.01
2019-03-26T14:52:36.018Z,94624.52
2019-03-26T14:55:08.102Z,94622.78
2019-03-26T14:57:39.388Z,94620.87
2019-03-26T15:00:10.910Z,94622.88
2019-03-26T15:02:43.594Z,94626.25
2019-03-26T15:05:15.204Z,94619.63
2019-03-26T15:07:46.139Z,94628.14
2019-03-26T15:10:17.305Z,94625.65
2019-03-26T15:12:48.518Z,94401.17
2019-03-26T15:15:19.735Z,94633.13
2019-03-26T15:17:51.088Z,94630.86
2019-03-26T15:20:21.944Z,94650.70
2019-03-26T15:22:53.055Z,94652.89
2019-03-26T15:25:23.976Z,94654.80
2019-03-26T15:27:54.845Z,94651.44
2019-03-26T15:30:25.696Z,94658.92
2019-03-26T15:32:58.041Z,94660.03
2019-03-26T15:35:28.978Z,94665.54
2019-03-26T15:37:59.890Z,94669.09
2019-03-26T15:40:31.133Z,94670.16
2019-03-26T15:43:02.131Z,94676.33
2019-03-26T15:45:34.269Z,94689.16
2019-03-26T15:48:05.294Z,94690.47
2019-03-26T15:50:40.849Z,94692.20
2019-03-26T15:53:12.007Z,94691.23
2019-03-26T15:55:42.982Z,94692.21
2019-03-26T15:58:13.866Z,94679.77
2019-03-26T16:00:45.811Z,94688.15
2019-03-26T16:03:16.964Z,94687.61
2019-03-26T16:05:47.892Z,94692.30
2019-03-26T16:08:19.167Z,94710.36
2019-03-26T16:10:50.386Z,94702.55
2019-03-26T16:13:21.417Z,94713.00
2019-03-26T16:15:52.635Z,94711.69
2019-03-26T16:18:23.832Z,94705.47
2019-03-26T16:20:54.707Z,94702.16
2019-03-26T16:23:25.747Z,94703.61
2019-03-26T16:25:56.950Z,94702.91
2019-03-26T16:28:27.817Z,94709.77
2019-03-26T16:30:58.720Z,94717.62
2019-03-26T16:33:29.727Z,94713.62
2019-03-26T16:36:00.614Z,94717.78
2019-03-26T16:38:31.674Z,94723.48
2019-03-26T16:41:02.890Z,94719.47
2019-03-26T16:43:33.940Z,94729.20
2019-03-26T16:46:04.902Z,94717.47
2019-03-26T16:48:36.215Z,94725.67
2019-03-26T16:51:07.158Z,94732.09
2019-03-26T16:53:38.534Z,94746.23
2019-03-26T16:56:09.487Z,94739.88
2019-03-26T16:58:40.825Z,94743.01
2019-03-26T17:01:12.066Z,94751.96
2019-03-26T17:03:43.222Z,94750.08
2019-03-26T17:06:14.143Z,94763.47
2019-03-26T17:08:45.519Z,94764.84
2019-03-26T17:11:16.597Z,94763.17
2019-03-26T17:13:47.580Z,94759.75
2019-03-26T17:16:18.855Z,94770.92
2019-03-26T17:18:50.094Z,94771.50
2019-03-26T17:21:21.123Z,94775.55
2019-03-26T17:23:52.166Z,94781.78
2019-03-26T17:26:23.497Z,94776.52
2019-03-26T17:28:54.737Z,94776.26
2019-03-26T17:31:25.982Z,94783.48
2019-03-26T17:33:56.889Z,94796.33
2019-03-26T17:36:28.023Z,94790.53
2019-03-26T17:38:59.325Z,94810.85
2019-03-26T17:41:30.591Z,94795.95
2019-03-26T17:44:02.643Z,94804.34
2019-03-26T17:46:33.830Z,94803.73
2019-03-26T17:49:04.782Z,94806.66
2019-03-26T17:51:35.774Z,94808.75
2019-03-26T17:54:06.767Z,94823.14
2019-03-26T17:56:38.164Z,94821.77
2019-03-26T17:59:09.395Z,94828.34
2019-03-26T18:01:40.501Z,94822.80
2019-03-26T18:04:11.426Z,94829.81
2019-03-26T18:06:42.398Z,94828.52
2019-03-26T18:09:13.533Z,94838.53
2019-03-26T18:11:44.627Z,94844.17
2019-03-26T18:14:15.870Z,94849.38
2019-03-26T18:16:46.833Z,94850.76
2019-03-26T18:19:17.854Z,94858.56
2019-03-26T18:21:51.880Z,94855.60
2019-03-26T18:24:22.184Z,94859.48
2019-03-26T18:26:53.235Z,94861.39
2019-03-26T18:29:24.189Z,94870.80
2019-03-26T18:31:55.378Z,94876.16
2019-03-26T18:34:26.260Z,94875.65
2019-03-26T18:36:57.580Z,94877.63
2019-03-26T18:39:29.016Z,94880.77
2019-03-26T18:41:59.859Z,94881.57
2019-03-26T18:44:31.086Z,94883.62
2019-03-26T18:47:02.157Z,94877.76
2019-03-26T18:49:33.269Z,94877.20
2019-03-26T18:52:04.245Z,94881.31
2019-03-26T18:54:35.468Z,94886.08
2019-03-26T18:57:06.724Z,94898.33
2019-03-26T18:59:37.905Z,94888.73
2019-03-26T19:02:08.951Z,94895.47
2019-03-26T19:04:40.215Z,94891.78
2019-03-26T19:07:12.463Z,94900.08
2019-03-26T19:09:43.610Z,94895.16
2019-03-26T19:12:14.581Z,94897.17
2019-03-26T19:14:47.317Z,94898.62
2019-03-26T19:17:18.348Z,94898.12
2019-03-26T19:19:49.315Z,94895.80
2019-03-26T19:22:20.729Z,94902.35
2019-03-26T19:24:52.055Z,94912.33
2019-03-26T19:27:22.982Z,94906.48
2019-03-26T19:29:54.689Z,94905.69
2019-03-26T19:32:25.697Z,94905.12
2019-03-26T19:34:56.710Z,94914.57
2019-03-26T19:37:27.687Z,94909.80
2019-03-26T19:39:58.643Z,94936.97
2019-03-26T19:42:30.054Z,94918.14
2019-03-26T19:45:01.184Z,94920.23
2019-03-26T19:47:32.122Z,94923.83
2019-03-26T19:50:03.138Z,94922.53
2019-03-26T19:52:34.301Z,94927.08
2019-03-26T19:55:05.350Z,94932.81
2019-03-26T19:57:36.609Z,94931.95
2019-03-26T20:00:09.816Z,94940.80
2019-03-26T20:02:41.960Z,94943.97
2019-03-26T20:05:13.090Z,94942.45
2019-03-26T20:07:43.909Z,94947.25
2019-03-26T20:10:15.492Z,94951.60
2019-03-26T20:12:46.697Z,94957.83
2019-03-26T20:15:18.412Z,94960.77
2019-03-26T20:17:49.709Z,94955.94
2019-03-26T20:20:22.507Z,94957.70
2019-03-26T20:22:54.493Z,94963.90
2019-03-26T20:25:26.506Z,94952.52
2019-03-26T20:27:57.800Z,94956.48
2019-03-26T20:30:28.960Z,94966.03
2019-03-26T20:32:59.974Z,94968.41
2019-03-26T20:35:31.028Z,94975.43
2019-03-26T20:38:02.103Z,94973.84
2019-03-26T20:40:33.131Z,94965.37
2019-03-26T20:43:04.049Z,94986.36
2019-03-26T20:45:35.104Z,94979.30
2019-03-26T20:48:06.513Z,94974.61
2019-03-26T20:50:37.334Z,94969.23
2019-03-26T20:53:08.530Z,94980.61
2019-03-26T20:55:39.614Z,94979.01
2019-03-26T20:58:10.611Z,94977.27
2019-03-26T21:00:42.978Z,94978.95
2019-03-26T21:03:14.178Z,94976.48
2019-03-26T21:05:45.144Z,94983.39
2019-03-26T21:08:16.060Z,94990.30
2019-03-26T21:10:46.917Z,94996.12
2019-03-26T21:13:17.877Z,95001.77
2019-03-26T21:15:56.973Z,95001.45
2019-03-26T21:18:21.750Z,94998.13
2019-03-26T21:20:52.937Z,95008.00
2019-03-26T21:23:24.125Z,95006.58
2019-03-26T21:25:55.197Z,95007.34
2019-03-26T21:28:26.059Z,95007.34
2019-03-26T21:30:57.210Z,95021.58
2019-03-26T21:33:28.297Z,95019.09
2019-03-26T21:35:59.096Z,95019.91
2019-03-26T21:38:30.049Z,95027.62
2019-03-26T21:41:00.862Z,95034.95
2019-03-26T21:43:32.146Z,95036.75
2019-03-26T21:46:03.216Z,95038.62
2019-03-26T21:48:34.082Z,95044.16
2019-03-26T21:51:05.243Z,95042.17
2019-03-26T21:53:36.362Z,95041.48
2019-03-26T21:56:07.289Z,95047.64
2019-03-26T21:58:38.665Z,95051.23
2019-03-26T22:01:09.898Z,95056.08
2019-03-26T22:03:40.807Z,95063.03
2019-03-26T22:06:11.899Z,95062.44
2019-03-26T22:08:42.924Z,95060.50
2019-03-26T22:11:13.746Z,95064.86
2019-03-26T22:13:45.011Z,95059.58
2019-03-26T22:16:15.869Z,95067.78
2019-03-26T22:18:47.014Z,95071.05
2019-03-26T22:21:18.286Z,95073.93
2019-03-26T22:23:49.255Z,95069.99
2019-03-26T22:26:20.381Z,95072.77
2019-03-26T22:28:51.572Z,95070.70
2019-03-26T22:31:22.538Z,95069.73
2019-03-26T22:33:53.597Z,95072.96
2019-03-26T22:36:24.552Z,95070.39
2019-03-26T22:38:55.358Z,95077.59
2019-03-26T22:41:26.348Z,95078.45
2019-03-26T22:43:58.519Z,95080.09
2019-03-26T22:46:29.597Z,95084.25
2019-03-26T22:49:00.514Z,95083.16
2019-03-26T22:51:31.693Z,95074.40
2019-03-26T22:54:02.914Z,95082.23
2019-03-26T22:56:33.831Z,95089.00
2019-03-26T22:59:05.009Z,95082.15
2019-03-26T23:01:35.850Z,95086.55
2019-03-26T23:04:06.825Z,95082.35
2019-03-26T23:06:38.025Z,95087.05
2019-03-26T23:09:09.060Z,95086.19
2019-03-26T23:11:40.006Z,95088.59
2019-03-26T23:14:10.953Z,95087.28
2019-03-26T23:16:42.262Z,95087.84
2019-03-26T23:19:13.569Z,95093.34
2019-03-26T23:21:44.711Z,95088.45
2019-03-26T23:24:15.646Z,95087.17
2019-03-26T23:26:46.827Z,95091.86
2019-03-26T23:29:17.860Z,95083.29
2019-03-26T23:31:48.825Z,95095.86
2019-03-26T23:34:19.796Z,95097.47
2019-03-26T23:36:51.036Z,95095.37
2019-03-26T23:39:21.857Z,95095.97
2019-03-26T23:41:52.727Z,95097.08
2019-03-26T23:44:26.006Z,95095.67
2019-03-26T23:46:56.855Z,95095.56
2019-03-26T23:49:28.060Z,95095.39
2019-03-26T23:51:58.973Z,95092.28
2019-03-26T23:54:30.098Z,95095.17
2019-03-26T23:57:01.266Z,95090.09
2019-03-26T23:59:32.098Z,95088.11
